createdAt,value
2019-01-03T00:00:19.798Z,13.18
2019-01-03T00:03:29.724Z,9.63
2019-01-03T00:06:22.976Z,13.30
2019-01-03T00:09:11.616Z,9.90
2019-01-03T00:12:02.796Z,13.63
2019-01-03T00:15:02.100Z,8.15
2019-01-03T00:17:52.429Z,8.50
2019-01-03T00:20:41.368Z,10.50
2019-01-03T00:23:43.963Z,7.80
2019-01-03T00:26:32.915Z,6.15
2019-01-03T00:29:23.248Z,12.23
2019-01-03T00:32:16.537Z,8.10
2019-01-03T00:35:21.988Z,12.70
2019-01-03T00:38:16.156Z,9.40
2019-01-03T00:41:09.170Z,10.45
2019-01-03T00:44:05.273Z,10.00
2019-01-03T00:47:06.005Z,11.68
2019-01-03T00:49:55.095Z,10.20
2019-01-03T00:52:44.149Z,13.03
2019-01-03T00:55:33.139Z,14.85
2019-01-03T00:58:38.267Z,16.12
2019-01-03T01:01:27.179Z,10.27
2019-01-03T01:04:16.141Z,11.15
2019-01-03T01:07:12.462Z,12.53
2019-01-03T01:10:01.423Z,10.10
2019-01-03T01:12:50.357Z,11.60
2019-01-03T01:15:38.992Z,10.68
2019-01-03T01:18:32.259Z,9.87
2019-01-03T01:21:23.686Z,10.38
2019-01-03T01:24:13.421Z,9.95
2019-01-03T01:27:02.066Z,16.70
2019-01-03T01:30:04.539Z,10.00
2019-01-03T01:33:03.602Z,12.10
2019-01-03T01:35:53.894Z,13.53
2019-01-03T01:38:53.534Z,10.40
2019-01-03T01:42:01.718Z,16.82
2019-01-03T01:45:03.829Z,10.82
2019-01-03T01:47:54.212Z,7.95
2019-01-03T01:50:42.899Z,17.20
2019-01-03T01:53:39.253Z,15.98
2019-01-03T01:56:41.426Z,9.33
2019-01-03T01:59:28.990Z,7.45
2019-01-03T02:02:28.324Z,8.78
2019-01-03T02:05:30.726Z,9.45
2019-01-03T02:08:21.046Z,17.60
2019-01-03T02:11:12.156Z,17.57
2019-01-03T02:14:00.993Z,9.43
2019-01-03T02:16:57.489Z,18.27
2019-01-03T02:19:43.200Z,17.37
2019-01-03T02:22:33.335Z,7.37
2019-01-03T02:25:17.531Z,17.92
2019-01-03T02:28:13.683Z,8.40
2019-01-03T02:31:04.011Z,6.22
2019-01-03T02:34:06.150Z,8.80
2019-01-03T02:36:56.369Z,9.00
2019-01-03T02:39:43.277Z,14.78
2019-01-03T02:42:36.599Z,13.93
2019-01-03T02:45:42.298Z,11.45
2019-01-03T02:48:31.239Z,11.08
2019-01-03T02:51:21.530Z,7.60
2019-01-03T02:54:10.224Z,16.30
2019-01-03T02:57:02.512Z,9.70
2019-01-03T03:00:01.886Z,9.33
2019-01-03T03:02:51.158Z,12.87
2019-01-03T03:05:55.129Z,8.53
2019-01-03T03:08:51.499Z,8.15
2019-01-03T03:11:43.870Z,13.22
2019-01-03T03:14:46.070Z,12.05
2019-01-03T03:17:35.080Z,9.33
2019-01-03T03:20:24.187Z,9.15
2019-01-03T03:23:18.521Z,11.18
2019-01-03T03:26:07.542Z,5.05
2019-01-03T03:29:15.897Z,9.68
2019-01-03T03:32:05.132Z,5.33
2019-01-03T03:34:55.796Z,12.63
2019-01-03T03:37:41.912Z,11.53
2019-01-03T03:40:44.133Z,8.43
2019-01-03T03:43:33.188Z,10.05
2019-01-03T03:46:26.283Z,10.18
2019-01-03T03:49:31.545Z,8.73
2019-01-03T03:52:40.031Z,12.15
2019-01-03T03:55:36.085Z,10.95
2019-01-03T03:58:33.835Z,4.75
2019-01-03T04:01:43.289Z,7.00
2019-01-03T04:04:49.055Z,7.05
2019-01-03T04:07:39.608Z,5.25
2019-01-03T04:10:31.095Z,9.78
2019-01-03T04:13:22.013Z,6.22
2019-01-03T04:16:14.976Z,9.85
2019-01-03T04:19:06.408Z,6.50
2019-01-03T04:21:58.496Z,8.30
2019-01-03T04:24:57.906Z,13.32
2019-01-03T04:27:57.132Z,6.12
2019-01-03T04:30:55.842Z,6.78
2019-01-03T04:33:58.012Z,6.05
2019-01-03T04:36:56.948Z,16.17
2019-01-03T04:39:45.995Z,9.28
2019-01-03T04:42:42.210Z,7.25
2019-01-03T04:45:36.721Z,3.75
2019-01-03T04:48:39.063Z,10.30
2019-01-03T04:51:41.325Z,4.95
2019-01-03T04:54:31.677Z,8.35
2019-01-03T04:57:30.773Z,7.25
2019-01-03T05:00:19.238Z,7.90
2019-01-03T05:03:12.318Z,8.30
2019-01-03T05:06:01.324Z,3.85
2019-01-03T05:08:46.174Z,8.13
2019-01-03T05:11:33.695Z,8.33
2019-01-03T05:14:33.546Z,6.47
2019-01-03T05:17:23.578Z,13.13
2019-01-03T05:20:20.046Z,11.70
2019-01-03T05:23:09.011Z,11.03
2019-01-03T05:25:57.544Z,8.40
2019-01-03T05:28:48.366Z,9.40
2019-01-03T05:31:40.580Z,7.00
2019-01-03T05:34:41.541Z,6.40
2019-01-03T05:37:35.098Z,9.28
2019-01-03T05:40:24.031Z,8.63
2019-01-03T05:43:12.974Z,10.55
2019-01-03T05:46:12.221Z,5.80
2019-01-03T05:49:00.807Z,8.68
2019-01-03T05:51:49.983Z,4.42
2019-01-03T05:54:40.507Z,7.85
2019-01-03T05:57:26.335Z,7.10
2019-01-03T06:00:15.439Z,9.65
2019-01-03T06:03:04.318Z,10.68
2019-01-03T06:06:01.007Z,8.80
2019-01-03T06:09:06.564Z,7.22
2019-01-03T06:11:56.878Z,7.00
2019-01-03T06:14:45.440Z,14.33
2019-01-03T06:17:34.310Z,7.67
2019-01-03T06:20:23.136Z,5.55
2019-01-03T06:23:17.086Z,12.40
2019-01-03T06:26:10.152Z,9.13
2019-01-03T06:29:05.936Z,6.40
2019-01-03T06:32:08.459Z,7.62
2019-01-03T06:35:04.562Z,11.45
2019-01-03T06:37:53.421Z,13.68
2019-01-03T06:40:46.641Z,9.50
2019-01-03T06:43:35.892Z,11.50
2019-01-03T06:46:24.793Z,8.53
2019-01-03T06:49:29.686Z,9.15
2019-01-03T06:52:28.806Z,23.70
2019-01-03T06:55:17.400Z,15.70
2019-01-03T06:58:06.438Z,21.75
2019-01-03T07:01:02.768Z,29.92
2019-01-03T07:04:05.053Z,24.15
2019-01-03T07:06:55.254Z,27.90
2019-01-03T07:09:54.141Z,7.85
2019-01-03T07:12:40.940Z,16.25
2019-01-03T07:15:30.035Z,10.80
2019-01-03T07:18:15.434Z,8.35
2019-01-03T07:21:05.727Z,11.03
2019-01-03T07:23:50.373Z,7.50
2019-01-03T07:26:39.298Z,10.75
2019-01-03T07:29:47.670Z,12.43
2019-01-03T07:32:52.813Z,13.03
2019-01-03T07:35:43.635Z,11.30
2019-01-03T07:38:30.114Z,10.13
2019-01-03T07:41:19.120Z,9.45
2019-01-03T07:44:15.304Z,9.33
2019-01-03T07:47:12.451Z,18.45
2019-01-03T07:49:53.013Z,6.72
2019-01-03T07:52:46.357Z,13.75
2019-01-03T07:55:43.873Z,12.47
2019-01-03T07:58:32.563Z,5.25
2019-01-03T08:01:34.670Z,10.65
2019-01-03T08:04:23.608Z,13.93
2019-01-03T08:07:12.416Z,6.25
2019-01-03T08:10:08.595Z,15.08
2019-01-03T08:12:57.331Z,10.15
2019-01-03T08:15:56.437Z,12.10
2019-01-03T08:18:39.162Z,8.33
2019-01-03T08:21:38.351Z,9.10
2019-01-03T08:24:26.882Z,12.47
2019-01-03T08:27:14.009Z,10.93
2019-01-03T08:30:04.317Z,8.23
2019-01-03T08:32:53.168Z,9.98
2019-01-03T08:35:46.550Z,10.98
2019-01-03T08:38:26.087Z,9.95
2019-01-03T08:41:28.018Z,8.23
2019-01-03T08:44:24.466Z,5.97
2019-01-03T08:47:13.128Z,8.00
2019-01-03T08:50:03.581Z,15.65
2019-01-03T08:52:57.043Z,12.45
2019-01-03T08:56:02.278Z,12.65
2019-01-03T08:58:47.502Z,9.13
2019-01-03T09:01:43.536Z,13.20
2019-01-03T09:04:32.454Z,9.05
2019-01-03T09:07:21.428Z,11.10
2019-01-03T09:10:05.858Z,17.12
2019-01-03T09:13:01.716Z,8.60
2019-01-03T09:15:51.911Z,10.30
2019-01-03T09:18:35.109Z,9.45
2019-01-03T09:21:25.415Z,14.45
2019-01-03T09:24:34.159Z,16.37
2019-01-03T09:27:24.297Z,11.35
2019-01-03T09:30:14.158Z,13.70
2019-01-03T09:33:10.504Z,10.35
2019-01-03T09:36:13.025Z,15.98
2019-01-03T09:39:12.172Z,11.03
2019-01-03T09:42:00.920Z,8.78
2019-01-03T09:44:49.367Z,15.55
2019-01-03T09:47:20.826Z,10.30
2019-01-03T09:49:53.377Z,8.05
2019-01-03T09:52:24.791Z,4.60
2019-01-03T09:54:56.092Z,6.53
2019-01-03T09:57:27.537Z,5.47
2019-01-03T09:59:58.864Z,8.05
2019-01-03T10:02:30.358Z,8.70
2019-01-03T10:05:01.789Z,8.33
2019-01-03T10:07:33.242Z,5.12
2019-01-03T10:10:05.733Z,5.62
2019-01-03T10:12:37.188Z,5.28
2019-01-03T10:15:08.718Z,7.80
2019-01-03T10:17:40.138Z,6.28
2019-01-03T10:20:11.539Z,6.60
2019-01-03T10:22:43.295Z,14.80
2019-01-03T10:25:14.857Z,13.22
2019-01-03T10:27:46.283Z,18.95
2019-01-03T10:30:17.761Z,9.33
2019-01-03T10:32:49.287Z,11.33
2019-01-03T10:35:20.981Z,7.60
2019-01-03T10:37:52.265Z,8.80
2019-01-03T10:40:23.734Z,13.35
2019-01-03T10:42:55.122Z,12.03
2019-01-03T10:45:26.630Z,11.22
2019-01-03T10:47:59.395Z,6.42
2019-01-03T10:50:30.910Z,9.13
2019-01-03T10:53:02.298Z,7.08
2019-01-03T10:55:33.775Z,6.92
2019-01-03T10:58:05.442Z,12.60
2019-01-03T11:00:36.868Z,10.85
2019-01-03T11:03:08.300Z,8.45
2019-01-03T11:05:39.633Z,6.95
2019-01-03T11:08:11.067Z,9.58
2019-01-03T11:10:42.537Z,12.80
2019-01-03T11:13:13.882Z,9.28
2019-01-03T11:15:45.216Z,13.80
2019-01-03T11:18:16.628Z,5.72
2019-01-03T11:20:48.034Z,4.30
2019-01-03T11:23:19.469Z,4.90
2019-01-03T11:25:50.887Z,6.35
2019-01-03T11:28:22.147Z,6.47
2019-01-03T11:30:53.899Z,6.12
2019-01-03T11:33:25.240Z,5.10
2019-01-03T11:35:56.704Z,7.65
2019-01-03T11:38:28.125Z,9.08
2019-01-03T11:40:59.506Z,5.53
2019-01-03T11:43:30.979Z,5.37
2019-01-03T11:46:02.206Z,10.53
2019-01-03T11:48:33.662Z,10.35
2019-01-03T11:51:04.974Z,7.00
2019-01-03T11:53:36.390Z,8.33
2019-01-03T11:56:07.686Z,6.83
2019-01-03T11:58:39.119Z,11.35
2019-01-03T12:01:10.523Z,4.53
2019-01-03T12:03:41.883Z,8.00
2019-01-03T12:06:13.480Z,6.62
2019-01-03T12:08:44.935Z,8.20
2019-01-03T12:11:16.442Z,7.17
2019-01-03T12:13:47.872Z,6.85
2019-01-03T12:16:19.300Z,7.95
2019-01-03T12:18:50.756Z,12.73
2019-01-03T12:21:22.140Z,5.93
2019-01-03T12:23:53.562Z,11.00
2019-01-03T12:26:24.806Z,8.10
2019-01-03T12:28:56.087Z,6.50
2019-01-03T12:31:27.549Z,6.83
2019-01-03T12:33:58.887Z,13.78
2019-01-03T12:36:30.327Z,7.33
2019-01-03T12:39:01.735Z,14.00
2019-01-03T12:41:34.724Z,9.68
2019-01-03T12:44:06.210Z,8.95
2019-01-03T12:46:37.563Z,7.15
2019-01-03T12:49:08.977Z,6.40
2019-01-03T12:51:40.298Z,8.68
2019-01-03T12:54:11.745Z,11.75
2019-01-03T12:56:43.217Z,9.23
2019-01-03T12:59:14.742Z,10.65
2019-01-03T13:01:46.113Z,12.88
2019-01-03T13:04:17.586Z,9.70
2019-01-03T13:06:49.043Z,10.93
2019-01-03T13:09:20.831Z,12.10
2019-01-03T13:11:52.364Z,20.35
2019-01-03T13:14:23.720Z,12.68
2019-01-03T13:16:55.295Z,16.37
2019-01-03T13:19:26.838Z,15.00
2019-01-03T13:21:58.406Z,15.68
2019-01-03T13:24:30.853Z,18.60
2019-01-03T13:27:02.272Z,13.90
2019-01-03T13:29:33.802Z,11.68
2019-01-03T13:32:06.151Z,13.22
2019-01-03T13:34:37.749Z,16.80
2019-01-03T13:37:09.127Z,17.17
2019-01-03T13:39:40.578Z,14.80
2019-01-03T13:42:12.013Z,17.92
2019-01-03T13:44:43.411Z,18.27
2019-01-03T13:47:14.542Z,19.70
2019-01-03T13:49:45.974Z,18.17
2019-01-03T13:52:17.494Z,14.83
2019-01-03T13:54:48.923Z,13.88
2019-01-03T13:57:20.447Z,17.75
2019-01-03T13:59:51.913Z,22.25
2019-01-03T14:02:23.251Z,12.00
2019-01-03T14:04:54.778Z,16.42
2019-01-03T14:07:26.224Z,20.95
2019-01-03T14:09:57.712Z,16.50
2019-01-03T14:12:29.119Z,15.32
2019-01-03T14:15:00.635Z,15.75
2019-01-03T14:17:32.094Z,14.73
2019-01-03T14:20:03.478Z,22.00
2019-01-03T14:22:34.837Z,17.98
2019-01-03T14:25:06.620Z,24.85
2019-01-03T14:27:38.504Z,17.23
2019-01-03T14:30:11.433Z,16.75
2019-01-03T14:32:43.244Z,15.15
2019-01-03T14:35:14.751Z,20.37
2019-01-03T14:37:46.283Z,21.40
2019-01-03T14:40:17.802Z,18.55
2019-01-03T14:42:49.233Z,26.42
2019-01-03T14:45:20.712Z,18.80
2019-01-03T14:47:51.998Z,17.95
2019-01-03T14:50:23.371Z,21.77
2019-01-03T14:52:54.851Z,27.65
2019-01-03T14:55:26.296Z,20.57
2019-01-03T14:57:57.748Z,24.32
2019-01-03T15:00:29.243Z,21.75
2019-01-03T15:03:00.706Z,21.80
2019-01-03T15:05:32.193Z,18.95
2019-01-03T15:08:03.731Z,26.93
2019-01-03T15:10:35.156Z,22.30
2019-01-03T15:13:06.673Z,23.50
2019-01-03T15:15:38.467Z,26.45
2019-01-03T15:18:09.907Z,15.65
2019-01-03T15:20:41.307Z,15.03
2019-01-03T15:23:12.752Z,20.70
2019-01-03T15:25:44.035Z,22.45
2019-01-03T15:28:15.355Z,19.55
2019-01-03T15:30:46.785Z,31.20
2019-01-03T15:33:18.272Z,16.05
2019-01-03T15:35:49.776Z,23.55
2019-01-03T15:38:21.085Z,38.55
2019-01-03T15:40:52.820Z,41.60
2019-01-03T15:43:24.202Z,28.45
2019-01-03T15:45:55.645Z,34.53
2019-01-03T15:48:27.111Z,22.40
2019-01-03T15:50:58.510Z,21.90
2019-01-03T15:53:29.968Z,25.23
2019-01-03T15:56:01.456Z,24.12
2019-01-03T15:58:32.929Z,22.67
2019-01-03T16:01:04.384Z,19.35
2019-01-03T16:03:36.421Z,21.10
2019-01-03T16:06:07.789Z,30.62
2019-01-03T16:08:39.148Z,23.05
2019-01-03T16:11:10.554Z,22.17
2019-01-03T16:13:42.638Z,26.02
2019-01-03T16:16:14.084Z,23.05
2019-01-03T16:18:45.470Z,31.93
2019-01-03T16:21:16.816Z,30.95
2019-01-03T16:23:48.143Z,21.35
2019-01-03T16:26:19.552Z,32.48
2019-01-03T16:28:51.280Z,23.47
2019-01-03T16:31:22.970Z,17.10
2019-01-03T16:33:55.408Z,22.30
2019-01-03T16:36:26.897Z,21.27
2019-01-03T16:38:58.330Z,25.68
2019-01-03T16:41:29.788Z,29.42
2019-01-03T16:44:01.208Z,26.50
2019-01-03T16:46:32.661Z,24.15
2019-01-03T16:49:04.139Z,30.77
2019-01-03T16:51:35.541Z,28.55
2019-01-03T16:54:06.930Z,28.65
2019-01-03T16:56:38.364Z,30.95
2019-01-03T16:59:09.715Z,32.05
2019-01-03T17:01:41.158Z,36.95
2019-01-03T17:04:12.623Z,31.37
2019-01-03T17:06:44.106Z,33.18
2019-01-03T17:09:15.463Z,30.97
2019-01-03T17:11:46.939Z,33.88
2019-01-03T17:14:18.260Z,35.28
2019-01-03T17:16:49.661Z,22.82
2019-01-03T17:19:21.180Z,26.73
2019-01-03T17:21:52.823Z,30.30
2019-01-03T17:24:24.420Z,29.00
2019-01-03T17:26:55.967Z,32.35
2019-01-03T17:29:27.280Z,28.02
2019-01-03T17:31:58.715Z,31.05
2019-01-03T17:34:30.426Z,29.55
2019-01-03T17:37:01.722Z,29.00
2019-01-03T17:39:33.109Z,23.65
2019-01-03T17:42:04.594Z,35.10
2019-01-03T17:44:37.087Z,29.32
2019-01-03T17:47:08.545Z,25.48
2019-01-03T17:49:40.328Z,25.65
2019-01-03T17:52:11.793Z,29.27
2019-01-03T17:54:43.126Z,29.75
2019-01-03T17:57:14.689Z,29.57
2019-01-03T17:59:46.082Z,36.45
2019-01-03T18:02:17.622Z,29.02
2019-01-03T18:04:49.441Z,40.80
2019-01-03T18:07:23.822Z,31.87
2019-01-03T18:09:56.434Z,27.85
2019-01-03T18:12:28.092Z,27.37
2019-01-03T18:14:59.524Z,32.88
2019-01-03T18:17:30.958Z,33.42
2019-01-03T18:20:02.410Z,28.17
2019-01-03T18:22:35.137Z,28.17
2019-01-03T18:25:06.847Z,21.50
2019-01-03T18:27:38.527Z,32.53
2019-01-03T18:30:11.927Z,31.10
2019-01-03T18:32:49.839Z,32.03
2019-01-03T18:35:28.009Z,29.50
2019-01-03T18:38:02.306Z,33.05
2019-01-03T18:40:34.143Z,27.37
2019-01-03T18:43:06.995Z,25.65
2019-01-03T18:45:44.752Z,27.52
2019-01-03T18:48:16.840Z,30.72
2019-01-03T18:50:48.831Z,25.68
2019-01-03T18:53:22.624Z,29.25
2019-01-03T18:55:55.646Z,30.90
2019-01-03T18:58:27.684Z,25.00
2019-01-03T19:00:59.175Z,26.80
2019-01-03T19:03:30.700Z,31.55
2019-01-03T19:06:02.038Z,31.87
2019-01-03T19:08:33.410Z,30.45
2019-01-03T19:11:04.850Z,40.20
2019-01-03T19:13:36.172Z,63.17
2019-01-03T19:16:07.560Z,30.27
2019-01-03T19:18:38.949Z,31.48
2019-01-03T19:21:10.412Z,27.82
2019-01-03T19:23:41.774Z,35.75
2019-01-03T19:26:13.956Z,22.30
2019-01-03T19:28:45.377Z,35.80
2019-01-03T19:31:16.831Z,29.30
2019-01-03T19:33:48.283Z,28.90
2019-01-03T19:36:19.609Z,24.20
2019-01-03T19:38:50.963Z,28.07
2019-01-03T19:41:22.359Z,29.65
2019-01-03T19:43:53.937Z,31.00
2019-01-03T19:46:25.429Z,32.98
2019-01-03T19:48:56.991Z,25.05
2019-01-03T19:51:28.529Z,34.27
2019-01-03T19:54:01.016Z,31.48
2019-01-03T19:56:32.513Z,32.38
2019-01-03T19:59:03.979Z,39.45
2019-01-03T20:01:35.661Z,33.25
2019-01-03T20:04:07.080Z,26.75
2019-01-03T20:06:38.585Z,30.43
2019-01-03T20:09:10.105Z,30.97
2019-01-03T20:11:41.611Z,32.05
2019-01-03T20:14:14.180Z,29.63
2019-01-03T20:16:45.627Z,25.95
2019-01-03T20:19:17.059Z,30.68
2019-01-03T20:21:48.515Z,32.23
2019-01-03T20:24:19.946Z,34.10
2019-01-03T20:26:51.334Z,43.85
2019-01-03T20:29:22.651Z,40.43
2019-01-03T20:31:54.121Z,40.12
2019-01-03T20:34:25.431Z,36.77
2019-01-03T20:36:56.839Z,36.68
2019-01-03T20:39:28.275Z,44.45
2019-01-03T20:41:59.732Z,41.77
2019-01-03T20:44:31.208Z,40.17
2019-01-03T20:47:02.647Z,41.02
2019-01-03T20:49:34.084Z,37.58
2019-01-03T20:52:05.626Z,32.40
2019-01-03T20:54:37.171Z,34.50
2019-01-03T20:57:08.533Z,34.25
2019-01-03T20:59:39.954Z,27.93
2019-01-03T21:02:11.414Z,34.85
2019-01-03T21:04:42.923Z,30.37
2019-01-03T21:07:14.271Z,36.05
2019-01-03T21:09:45.893Z,34.75
2019-01-03T21:12:17.599Z,39.25
2019-01-03T21:14:49.037Z,36.75
2019-01-03T21:17:20.532Z,33.08
2019-01-03T21:19:51.933Z,32.15
2019-01-03T21:22:23.543Z,40.30
2019-01-03T21:24:55.085Z,52.67
2019-01-03T21:27:26.521Z,38.08
2019-01-03T21:29:57.937Z,52.98
2019-01-03T21:32:29.296Z,41.50
2019-01-03T21:35:00.707Z,44.75
2019-01-03T21:37:32.294Z,56.10
2019-01-03T21:40:03.776Z,42.10
2019-01-03T21:42:35.327Z,40.00
2019-01-03T21:45:07.176Z,43.23
2019-01-03T21:47:38.616Z,32.45
2019-01-03T21:50:12.485Z,46.48
2019-01-03T21:52:43.908Z,40.08
2019-01-03T21:55:15.598Z,44.85
2019-01-03T21:57:47.991Z,31.73
2019-01-03T22:00:19.493Z,38.78
2019-01-03T22:02:50.916Z,39.40
2019-01-03T22:05:22.298Z,44.80
2019-01-03T22:07:53.597Z,39.35
2019-01-03T22:10:25.017Z,49.38
2019-01-03T22:12:56.474Z,41.90
2019-01-03T22:15:27.959Z,41.25
2019-01-03T22:17:59.417Z,33.02
2019-01-03T22:20:30.835Z,38.90
2019-01-03T22:23:02.114Z,44.27
2019-01-03T22:25:33.498Z,38.50
2019-01-03T22:28:04.945Z,36.63
2019-01-03T22:30:36.657Z,37.63
2019-01-03T22:33:08.153Z,36.45
2019-01-03T22:35:39.571Z,35.43
2019-01-03T22:38:11.111Z,41.45
2019-01-03T22:40:42.603Z,43.78
2019-01-03T22:43:13.929Z,42.17
2019-01-03T22:45:45.259Z,36.38
2019-01-03T22:48:16.683Z,46.68
2019-01-03T22:50:48.123Z,36.77
2019-01-03T22:53:19.583Z,40.52
2019-01-03T22:55:50.978Z,37.65
2019-01-03T22:58:22.360Z,39.03
2019-01-03T23:00:57.558Z,45.75
2019-01-03T23:03:29.360Z,35.60
2019-01-03T23:06:00.840Z,40.40
2019-01-03T23:08:32.327Z,34.92
2019-01-03T23:11:03.704Z,42.60
2019-01-03T23:13:35.450Z,35.50
2019-01-03T23:16:08.370Z,35.08
2019-01-03T23:18:39.692Z,31.30
2019-01-03T23:21:10.980Z,30.33
2019-01-03T23:23:42.394Z,39.03
2019-01-03T23:26:13.821Z,39.30
2019-01-03T23:28:45.151Z,35.00
2019-01-03T23:31:16.572Z,35.00
2019-01-03T23:33:48.041Z,38.23
2019-01-03T23:36:19.514Z,36.42
2019-01-03T23:38:50.863Z,34.90
2019-01-03T23:41:22.321Z,40.78
2019-01-03T23:43:53.838Z,46.45
2019-01-03T23:46:25.383Z,39.13
2019-01-03T23:48:57.170Z,45.03
2019-01-03T23:51:28.552Z,43.20
2019-01-03T23:54:02.007Z,39.80
2019-01-03T23:56:33.356Z,36.48
2019-01-03T23:59:04.759Z,32.53
